sensor_id;sensor_type;location;lat;lon;timestamp;P1;durP1;ratioP1;P2;durP2;ratioP2
25107;SDS011;13090;53.422;7.670;2023-03-18T00:00:59;9.00;;;5.55;;
25107;SDS011;13090;53.422;7.670;2023-03-18T00:06:03;9.05;;;5.68;;
25107;SDS011;13090;53.422;7.670;2023-03-18T00:11:06;8.90;;;5.72;;
25107;SDS011;13090;53.422;7.670;2023-03-18T00:16:11;8.38;;;5.38;;
25107;SDS011;13090;53.422;7.670;2023-03-18T00:21:14;8.07;;;5.55;;
25107;SDS011;13090;53.422;7.670;2023-03-18T00:26:16;7.85;;;5.32;;
25107;SDS011;13090;53.422;7.670;2023-03-18T00:31:20;8.32;;;5.03;;
25107;SDS011;13090;53.422;7.670;2023-03-18T00:36:22;6.95;;;5.18;;
25107;SDS011;13090;53.422;7.670;2023-03-18T00:41:24;7.07;;;4.07;;
25107;SDS011;13090;53.422;7.670;2023-03-18T00:46:30;5.47;;;4.30;;
25107;SDS011;13090;53.422;7.670;2023-03-18T00:51:34;6.38;;;3.63;;
25107;SDS011;13090;53.422;7.670;2023-03-18T00:56:38;7.35;;;3.50;;
25107;SDS011;13090;53.422;7.670;2023-03-18T01:01:42;7.07;;;3.65;;
25107;SDS011;13090;53.422;7.670;2023-03-18T01:06:44;5.90;;;3.55;;
25107;SDS011;13090;53.422;7.670;2023-03-18T01:11:46;7.10;;;3.22;;
25107;SDS011;13090;53.422;7.670;2023-03-18T01:16:50;6.68;;;3.65;;
25107;SDS011;13090;53.422;7.670;2023-03-18T01:21:52;5.40;;;3.30;;
25107;SDS011;13090;53.422;7.670;2023-03-18T01:26:54;4.47;;;2.90;;
25107;SDS011;13090;53.422;7.670;2023-03-18T01:31:58;6.45;;;3.25;;
25107;SDS011;13090;53.422;7.670;2023-03-18T01:37:00;5.25;;;3.20;;
25107;SDS011;13090;53.422;7.670;2023-03-18T01:42:03;8.15;;;3.00;;
25107;SDS011;13090;53.422;7.670;2023-03-18T01:47:07;5.63;;;3.33;;
25107;SDS011;13090;53.422;7.670;2023-03-18T01:52:11;7.03;;;3.00;;
25107;SDS011;13090;53.422;7.670;2023-03-18T01:57:16;6.82;;;3.38;;
25107;SDS011;13090;53.422;7.670;2023-03-18T02:02:22;6.07;;;3.30;;
25107;SDS011;13090;53.422;7.670;2023-03-18T02:07:26;6.50;;;3.15;;
25107;SDS011;13090;53.422;7.670;2023-03-18T02:12:31;5.18;;;3.25;;
25107;SDS011;13090;53.422;7.670;2023-03-18T02:17:37;5.90;;;2.75;;
25107;SDS011;13090;53.422;7.670;2023-03-18T02:22:43;5.60;;;3.13;;
25107;SDS011;13090;53.422;7.670;2023-03-18T02:27:52;5.85;;;3.45;;
25107;SDS011;13090;53.422;7.670;2023-03-18T02:32:57;5.10;;;3.10;;
25107;SDS011;13090;53.422;7.670;2023-03-18T02:38:00;8.02;;;3.85;;
25107;SDS011;13090;53.422;7.670;2023-03-18T02:43:18;6.30;;;3.58;;
25107;SDS011;13090;53.422;7.670;2023-03-18T02:48:23;7.32;;;3.70;;
25107;SDS011;13090;53.422;7.670;2023-03-18T02:53:30;7.07;;;3.78;;
25107;SDS011;13090;53.422;7.670;2023-03-18T02:58:34;7.13;;;3.75;;
25107;SDS011;13090;53.422;7.670;2023-03-18T03:03:37;4.47;;;3.67;;
25107;SDS011;13090;53.422;7.670;2023-03-18T03:08:40;8.25;;;4.18;;
25107;SDS011;13090;53.422;7.670;2023-03-18T03:13:43;7.15;;;4.65;;
25107;SDS011;13090;53.422;7.670;2023-03-18T03:18:46;7.88;;;5.50;;
25107;SDS011;13090;53.422;7.670;2023-03-18T03:23:48;9.23;;;5.88;;
25107;SDS011;13090;53.422;7.670;2023-03-18T03:28:51;9.85;;;6.57;;
25107;SDS011;13090;53.422;7.670;2023-03-18T03:33:54;12.43;;;7.60;;
25107;SDS011;13090;53.422;7.670;2023-03-18T03:38:56;11.55;;;7.18;;
25107;SDS011;13090;53.422;7.670;2023-03-18T03:43:59;12.95;;;7.30;;
25107;SDS011;13090;53.422;7.670;2023-03-18T03:49:02;10.15;;;7.53;;
25107;SDS011;13090;53.422;7.670;2023-03-18T03:54:04;12.50;;;7.95;;
25107;SDS011;13090;53.422;7.670;2023-03-18T03:59:08;11.95;;;8.07;;
25107;SDS011;13090;53.422;7.670;2023-03-18T04:04:10;13.63;;;8.48;;
25107;SDS011;13090;53.422;7.670;2023-03-18T04:09:12;12.75;;;8.35;;
25107;SDS011;13090;53.422;7.670;2023-03-18T04:14:16;14.18;;;8.18;;
25107;SDS011;13090;53.422;7.670;2023-03-18T04:19:18;12.95;;;8.63;;
25107;SDS011;13090;53.422;7.670;2023-03-18T04:24:20;14.18;;;9.05;;
25107;SDS011;13090;53.422;7.670;2023-03-18T04:29:24;14.38;;;8.40;;
25107;SDS011;13090;53.422;7.670;2023-03-18T04:34:26;13.15;;;8.75;;
25107;SDS011;13090;53.422;7.670;2023-03-18T04:39:28;15.55;;;9.00;;
25107;SDS011;13090;53.422;7.670;2023-03-18T04:44:31;12.25;;;8.75;;
25107;SDS011;13090;53.422;7.670;2023-03-18T04:49:34;16.52;;;9.25;;
25107;SDS011;13090;53.422;7.670;2023-03-18T04:54:36;13.00;;;9.63;;
25107;SDS011;13090;53.422;7.670;2023-03-18T04:59:40;14.63;;;10.13;;
25107;SDS011;13090;53.422;7.670;2023-03-18T05:04:42;17.00;;;10.88;;
25107;SDS011;13090;53.422;7.670;2023-03-18T05:09:44;15.63;;;10.70;;
25107;SDS011;13090;53.422;7.670;2023-03-18T05:14:48;16.55;;;11.77;;
25107;SDS011;13090;53.422;7.670;2023-03-18T05:19:50;17.75;;;11.63;;
25107;SDS011;13090;53.422;7.670;2023-03-18T05:24:52;17.65;;;11.80;;
25107;SDS011;13090;53.422;7.670;2023-03-18T05:29:56;19.80;;;11.30;;
25107;SDS011;13090;53.422;7.670;2023-03-18T05:34:58;18.73;;;11.85;;
25107;SDS011;13090;53.422;7.670;2023-03-18T05:40:00;16.90;;;11.95;;
25107;SDS011;13090;53.422;7.670;2023-03-18T05:45:04;18.25;;;11.52;;
25107;SDS011;13090;53.422;7.670;2023-03-18T05:50:08;18.20;;;12.18;;
25107;SDS011;13090;53.422;7.670;2023-03-18T05:55:12;17.02;;;12.07;;
25107;SDS011;13090;53.422;7.670;2023-03-18T06:00:16;18.45;;;13.00;;
25107;SDS011;13090;53.422;7.670;2023-03-18T06:05:19;16.60;;;11.82;;
25107;SDS011;13090;53.422;7.670;2023-03-18T06:10:22;23.58;;;12.32;;
25107;SDS011;13090;53.422;7.670;2023-03-18T06:15:28;18.55;;;11.85;;
25107;SDS011;13090;53.422;7.670;2023-03-18T06:20:30;17.27;;;11.25;;
25107;SDS011;13090;53.422;7.670;2023-03-18T06:25:32;25.10;;;15.45;;
25107;SDS011;13090;53.422;7.670;2023-03-18T06:30:36;20.63;;;13.40;;
25107;SDS011;13090;53.422;7.670;2023-03-18T06:35:38;18.77;;;13.57;;
25107;SDS011;13090;53.422;7.670;2023-03-18T06:40:41;17.13;;;11.00;;
25107;SDS011;13090;53.422;7.670;2023-03-18T06:45:44;19.00;;;12.88;;
25107;SDS011;13090;53.422;7.670;2023-03-18T06:50:47;15.15;;;10.68;;
25107;SDS011;13090;53.422;7.670;2023-03-18T06:55:49;19.95;;;10.90;;
25107;SDS011;13090;53.422;7.670;2023-03-18T07:00:52;14.95;;;10.38;;
25107;SDS011;13090;53.422;7.670;2023-03-18T07:05:55;18.75;;;9.95;;
25107;SDS011;13090;53.422;7.670;2023-03-18T07:10:57;18.30;;;10.93;;
25107;SDS011;13090;53.422;7.670;2023-03-18T07:16:00;14.80;;;9.68;;
25107;SDS011;13090;53.422;7.670;2023-03-18T07:21:03;14.30;;;9.32;;
25107;SDS011;13090;53.422;7.670;2023-03-18T07:26:05;12.45;;;9.23;;
25107;SDS011;13090;53.422;7.670;2023-03-18T07:31:09;15.00;;;10.43;;
25107;SDS011;13090;53.422;7.670;2023-03-18T07:36:11;18.20;;;11.05;;
25107;SDS011;13090;53.422;7.670;2023-03-18T07:41:13;17.75;;;11.55;;
25107;SDS011;13090;53.422;7.670;2023-03-18T07:46:17;15.52;;;10.02;;
25107;SDS011;13090;53.422;7.670;2023-03-18T07:51:19;14.40;;;10.15;;
25107;SDS011;13090;53.422;7.670;2023-03-18T07:56:21;16.67;;;10.23;;
25107;SDS011;13090;53.422;7.670;2023-03-18T08:01:25;13.10;;;8.85;;
25107;SDS011;13090;53.422;7.670;2023-03-18T08:06:28;11.73;;;9.20;;
25107;SDS011;13090;53.422;7.670;2023-03-18T08:11:36;12.98;;;9.13;;
25107;SDS011;13090;53.422;7.670;2023-03-18T08:16:55;12.80;;;8.73;;
25107;SDS011;13090;53.422;7.670;2023-03-18T08:22:40;14.30;;;9.23;;
25107;SDS011;13090;53.422;7.670;2023-03-18T08:27:42;13.63;;;9.52;;
25107;SDS011;13090;53.422;7.670;2023-03-18T08:32:46;14.60;;;9.30;;
25107;SDS011;13090;53.422;7.670;2023-03-18T08:37:48;15.02;;;10.57;;
25107;SDS011;13090;53.422;7.670;2023-03-18T08:42:50;14.18;;;9.73;;
25107;SDS011;13090;53.422;7.670;2023-03-18T08:47:54;16.25;;;10.88;;
25107;SDS011;13090;53.422;7.670;2023-03-18T08:52:56;16.67;;;9.80;;
25107;SDS011;13090;53.422;7.670;2023-03-18T08:58:00;14.52;;;9.50;;
25107;SDS011;13090;53.422;7.670;2023-03-18T09:03:05;16.25;;;10.75;;
25107;SDS011;13090;53.422;7.670;2023-03-18T09:08:07;12.40;;;9.05;;
25107;SDS011;13090;53.422;7.670;2023-03-18T09:13:10;10.60;;;8.35;;
25107;SDS011;13090;53.422;7.670;2023-03-18T09:18:13;12.55;;;9.00;;
25107;SDS011;13090;53.422;7.670;2023-03-18T09:23:16;13.88;;;8.35;;
25107;SDS011;13090;53.422;7.670;2023-03-18T09:28:18;12.38;;;9.10;;
25107;SDS011;13090;53.422;7.670;2023-03-18T09:33:22;13.32;;;8.35;;
25107;SDS011;13090;53.422;7.670;2023-03-18T09:38:24;13.93;;;8.20;;
25107;SDS011;13090;53.422;7.670;2023-03-18T09:43:30;10.98;;;7.30;;
25107;SDS011;13090;53.422;7.670;2023-03-18T09:48:58;9.38;;;7.30;;
25107;SDS011;13090;53.422;7.670;2023-03-18T09:54:28;9.38;;;7.30;;
25107;SDS011;13090;53.422;7.670;2023-03-18T09:59:37;12.10;;;7.45;;
25107;SDS011;13090;53.422;7.670;2023-03-18T10:04:43;11.63;;;7.28;;
25107;SDS011;13090;53.422;7.670;2023-03-18T10:09:50;10.52;;;6.95;;
25107;SDS011;13090;53.422;7.670;2023-03-18T10:14:58;10.93;;;8.13;;
25107;SDS011;13090;53.422;7.670;2023-03-18T10:20:17;9.82;;;6.95;;
25107;SDS011;13090;53.422;7.670;2023-03-18T10:25:24;11.07;;;6.88;;
25107;SDS011;13090;53.422;7.670;2023-03-18T10:35:39;9.90;;;7.60;;
25107;SDS011;13090;53.422;7.670;2023-03-18T10:40:48;9.80;;;7.00;;
25107;SDS011;13090;53.422;7.670;2023-03-18T10:45:53;13.20;;;7.88;;
25107;SDS011;13090;53.422;7.670;2023-03-18T10:51:06;12.10;;;7.40;;
25107;SDS011;13090;53.422;7.670;2023-03-18T10:56:13;13.75;;;7.80;;
25107;SDS011;13090;53.422;7.670;2023-03-18T11:01:16;11.50;;;7.30;;
25107;SDS011;13090;53.422;7.670;2023-03-18T11:06:25;13.48;;;7.75;;
25107;SDS011;13090;53.422;7.670;2023-03-18T11:11:38;9.63;;;5.85;;
25107;SDS011;13090;53.422;7.670;2023-03-18T11:16:44;8.82;;;5.88;;
25107;SDS011;13090;53.422;7.670;2023-03-18T11:21:49;10.17;;;7.30;;
25107;SDS011;13090;53.422;7.670;2023-03-18T11:27:01;9.50;;;6.47;;
25107;SDS011;13090;53.422;7.670;2023-03-18T11:32:04;6.43;;;4.65;;
25107;SDS011;13090;53.422;7.670;2023-03-18T11:37:30;9.50;;;6.47;;
25107;SDS011;13090;53.422;7.670;2023-03-18T11:42:34;10.20;;;7.72;;
25107;SDS011;13090;53.422;7.670;2023-03-18T11:47:39;11.05;;;8.07;;
25107;SDS011;13090;53.422;7.670;2023-03-18T11:52:43;9.38;;;6.85;;
25107;SDS011;13090;53.422;7.670;2023-03-18T11:58:04;15.27;;;9.75;;
25107;SDS011;13090;53.422;7.670;2023-03-18T12:03:24;16.08;;;11.15;;
25107;SDS011;13090;53.422;7.670;2023-03-18T12:08:44;14.00;;;10.68;;
25107;SDS011;13090;53.422;7.670;2023-03-18T12:13:58;15.07;;;10.20;;
25107;SDS011;13090;53.422;7.670;2023-03-18T12:19:11;17.30;;;12.48;;
25107;SDS011;13090;53.422;7.670;2023-03-18T12:24:38;16.17;;;11.48;;
25107;SDS011;13090;53.422;7.670;2023-03-18T12:29:57;14.65;;;10.25;;
25107;SDS011;13090;53.422;7.670;2023-03-18T12:35:26;14.30;;;9.68;;
25107;SDS011;13090;53.422;7.670;2023-03-18T12:40:43;11.00;;;8.32;;
25107;SDS011;13090;53.422;7.670;2023-03-18T12:45:58;12.27;;;8.70;;
25107;SDS011;13090;53.422;7.670;2023-03-18T12:51:05;10.98;;;8.23;;
25107;SDS011;13090;53.422;7.670;2023-03-18T12:56:12;12.05;;;7.85;;
25107;SDS011;13090;53.422;7.670;2023-03-18T13:01:19;11.48;;;7.57;;
25107;SDS011;13090;53.422;7.670;2023-03-18T13:06:26;10.00;;;7.80;;
25107;SDS011;13090;53.422;7.670;2023-03-18T13:11:50;9.18;;;7.78;;
25107;SDS011;13090;53.422;7.670;2023-03-18T13:17:00;8.45;;;6.82;;
25107;SDS011;13090;53.422;7.670;2023-03-18T13:22:07;9.82;;;6.55;;
25107;SDS011;13090;53.422;7.670;2023-03-18T13:33:11;8.77;;;6.60;;
25107;SDS011;13090;53.422;7.670;2023-03-18T13:38:33;13.35;;;8.25;;
25107;SDS011;13090;53.422;7.670;2023-03-18T13:43:53;9.27;;;7.50;;
25107;SDS011;13090;53.422;7.670;2023-03-18T13:48:59;9.45;;;7.07;;
25107;SDS011;13090;53.422;7.670;2023-03-18T13:54:03;8.95;;;6.47;;
25107;SDS011;13090;53.422;7.670;2023-03-18T14:04:48;9.10;;;5.05;;
25107;SDS011;13090;53.422;7.670;2023-03-18T14:09:52;4.40;;;3.28;;
25107;SDS011;13090;53.422;7.670;2023-03-18T14:15:37;4.43;;;3.20;;
25107;SDS011;13090;53.422;7.670;2023-03-18T14:20:42;4.13;;;3.70;;
25107;SDS011;13090;53.422;7.670;2023-03-18T14:25:47;9.07;;;3.60;;
25107;SDS011;13090;53.422;7.670;2023-03-18T14:30:58;4.10;;;3.55;;
25107;SDS011;13090;53.422;7.670;2023-03-18T14:36:43;4.55;;;3.25;;
25107;SDS011;13090;53.422;7.670;2023-03-18T14:42:00;6.57;;;4.40;;
25107;SDS011;13090;53.422;7.670;2023-03-18T14:47:13;6.33;;;4.17;;
25107;SDS011;13090;53.422;7.670;2023-03-18T14:52:38;4.95;;;3.90;;
25107;SDS011;13090;53.422;7.670;2023-03-18T14:57:43;4.63;;;3.67;;
25107;SDS011;13090;53.422;7.670;2023-03-18T15:02:47;5.43;;;3.80;;
25107;SDS011;13090;53.422;7.670;2023-03-18T15:07:54;4.05;;;3.28;;
25107;SDS011;13090;53.422;7.670;2023-03-18T15:12:58;3.85;;;3.28;;
25107;SDS011;13090;53.422;7.670;2023-03-18T15:18:09;3.20;;;2.63;;
25107;SDS011;13090;53.422;7.670;2023-03-18T15:23:19;5.55;;;2.80;;
25107;SDS011;13090;53.422;7.670;2023-03-18T15:28:28;4.30;;;2.58;;
25107;SDS011;13090;53.422;7.670;2023-03-18T15:33:34;2.88;;;2.20;;
25107;SDS011;13090;53.422;7.670;2023-03-18T15:38:42;3.00;;;2.50;;
25107;SDS011;13090;53.422;7.670;2023-03-18T15:43:47;3.08;;;2.17;;
25107;SDS011;13090;53.422;7.670;2023-03-18T15:48:53;2.70;;;2.13;;
25107;SDS011;13090;53.422;7.670;2023-03-18T15:53:58;5.35;;;2.38;;
25107;SDS011;13090;53.422;7.670;2023-03-18T15:59:05;4.00;;;2.70;;
25107;SDS011;13090;53.422;7.670;2023-03-18T16:04:15;3.72;;;2.55;;
25107;SDS011;13090;53.422;7.670;2023-03-18T16:09:19;3.92;;;2.30;;
25107;SDS011;13090;53.422;7.670;2023-03-18T16:14:22;2.90;;;2.42;;
25107;SDS011;13090;53.422;7.670;2023-03-18T16:19:30;3.53;;;2.47;;
25107;SDS011;13090;53.422;7.670;2023-03-18T16:24:32;4.70;;;2.95;;
25107;SDS011;13090;53.422;7.670;2023-03-18T16:29:35;3.38;;;2.88;;
25107;SDS011;13090;53.422;7.670;2023-03-18T16:34:39;4.68;;;3.03;;
25107;SDS011;13090;53.422;7.670;2023-03-18T16:39:41;4.72;;;3.03;;
25107;SDS011;13090;53.422;7.670;2023-03-18T16:44:43;4.50;;;2.85;;
25107;SDS011;13090;53.422;7.670;2023-03-18T16:49:47;3.58;;;2.75;;
25107;SDS011;13090;53.422;7.670;2023-03-18T16:54:49;4.13;;;2.88;;
25107;SDS011;13090;53.422;7.670;2023-03-18T16:59:52;4.55;;;2.88;;
25107;SDS011;13090;53.422;7.670;2023-03-18T17:04:56;5.03;;;2.95;;
25107;SDS011;13090;53.422;7.670;2023-03-18T17:09:58;3.78;;;3.17;;
25107;SDS011;13090;53.422;7.670;2023-03-18T17:15:01;3.97;;;3.35;;
25107;SDS011;13090;53.422;7.670;2023-03-18T17:20:13;5.68;;;3.67;;
25107;SDS011;13090;53.422;7.670;2023-03-18T17:25:17;5.00;;;3.20;;
25107;SDS011;13090;53.422;7.670;2023-03-18T17:30:20;4.00;;;3.15;;
25107;SDS011;13090;53.422;7.670;2023-03-18T17:35:28;3.15;;;2.75;;
25107;SDS011;13090;53.422;7.670;2023-03-18T17:40:30;3.55;;;2.15;;
25107;SDS011;13090;53.422;7.670;2023-03-18T17:45:33;3.75;;;2.38;;
25107;SDS011;13090;53.422;7.670;2023-03-18T17:50:37;2.47;;;2.20;;
25107;SDS011;13090;53.422;7.670;2023-03-18T17:55:40;3.33;;;2.38;;
25107;SDS011;13090;53.422;7.670;2023-03-18T18:00:43;4.35;;;3.08;;
25107;SDS011;13090;53.422;7.670;2023-03-18T18:05:47;3.45;;;2.50;;
25107;SDS011;13090;53.422;7.670;2023-03-18T18:10:50;6.82;;;3.97;;
25107;SDS011;13090;53.422;7.670;2023-03-18T18:15:55;5.38;;;3.20;;
25107;SDS011;13090;53.422;7.670;2023-03-18T18:20:59;7.03;;;4.70;;
25107;SDS011;13090;53.422;7.670;2023-03-18T18:26:03;5.35;;;4.05;;
25107;SDS011;13090;53.422;7.670;2023-03-18T18:31:08;6.93;;;4.65;;
25107;SDS011;13090;53.422;7.670;2023-03-18T18:36:13;6.63;;;4.30;;
25107;SDS011;13090;53.422;7.670;2023-03-18T18:41:15;1.67;;;1.20;;
25107;SDS011;13090;53.422;7.670;2023-03-18T18:46:18;2.22;;;0.90;;
25107;SDS011;13090;53.422;7.670;2023-03-18T18:51:22;1.20;;;1.00;;
25107;SDS011;13090;53.422;7.670;2023-03-18T18:56:26;1.63;;;1.27;;
25107;SDS011;13090;53.422;7.670;2023-03-18T19:01:33;1.90;;;1.23;;
25107;SDS011;13090;53.422;7.670;2023-03-18T19:06:36;1.88;;;1.20;;
25107;SDS011;13090;53.422;7.670;2023-03-18T19:11:39;1.38;;;1.20;;
25107;SDS011;13090;53.422;7.670;2023-03-18T19:16:41;1.30;;;1.20;;
25107;SDS011;13090;53.422;7.670;2023-03-18T19:21:44;1.92;;;1.70;;
25107;SDS011;13090;53.422;7.670;2023-03-18T19:26:47;3.95;;;2.80;;
25107;SDS011;13090;53.422;7.670;2023-03-18T19:31:49;3.42;;;2.20;;
25107;SDS011;13090;53.422;7.670;2023-03-18T19:36:53;5.07;;;2.83;;
25107;SDS011;13090;53.422;7.670;2023-03-18T19:41:56;2.75;;;2.05;;
25107;SDS011;13090;53.422;7.670;2023-03-18T19:46:59;2.55;;;1.90;;
25107;SDS011;13090;53.422;7.670;2023-03-18T19:52:05;3.95;;;2.13;;
25107;SDS011;13090;53.422;7.670;2023-03-18T19:57:12;2.15;;;1.65;;
25107;SDS011;13090;53.422;7.670;2023-03-18T20:02:18;2.38;;;1.60;;
25107;SDS011;13090;53.422;7.670;2023-03-18T20:07:24;2.20;;;1.80;;
25107;SDS011;13090;53.422;7.670;2023-03-18T20:12:28;2.10;;;1.70;;
25107;SDS011;13090;53.422;7.670;2023-03-18T20:17:36;3.97;;;2.35;;
25107;SDS011;13090;53.422;7.670;2023-03-18T20:22:41;3.60;;;2.58;;
25107;SDS011;13090;53.422;7.670;2023-03-18T20:27:48;6.72;;;4.22;;
25107;SDS011;13090;53.422;7.670;2023-03-18T20:32:50;3.08;;;2.38;;
25107;SDS011;13090;53.422;7.670;2023-03-18T20:37:54;2.50;;;2.30;;
25107;SDS011;13090;53.422;7.670;2023-03-18T20:42:58;4.10;;;3.63;;
25107;SDS011;13090;53.422;7.670;2023-03-18T20:48:00;5.88;;;4.20;;
25107;SDS011;13090;53.422;7.670;2023-03-18T20:53:04;4.85;;;3.90;;
25107;SDS011;13090;53.422;7.670;2023-03-18T20:58:12;5.15;;;4.50;;
25107;SDS011;13090;53.422;7.670;2023-03-18T21:03:19;6.40;;;4.00;;
25107;SDS011;13090;53.422;7.670;2023-03-18T21:08:25;9.18;;;3.92;;
25107;SDS011;13090;53.422;7.670;2023-03-18T21:13:29;8.63;;;4.13;;
25107;SDS011;13090;53.422;7.670;2023-03-18T21:18:33;4.35;;;3.38;;
25107;SDS011;13090;53.422;7.670;2023-03-18T21:23:36;16.10;;;4.80;;
25107;SDS011;13090;53.422;7.670;2023-03-18T21:28:38;7.38;;;4.88;;
25107;SDS011;13090;53.422;7.670;2023-03-18T21:33:40;33.53;;;5.53;;
25107;SDS011;13090;53.422;7.670;2023-03-18T21:38:44;50.40;;;6.18;;
25107;SDS011;13090;53.422;7.670;2023-03-18T21:43:46;6.53;;;4.88;;
25107;SDS011;13090;53.422;7.670;2023-03-18T21:48:49;7.05;;;5.50;;
25107;SDS011;13090;53.422;7.670;2023-03-18T21:53:53;6.45;;;4.85;;
25107;SDS011;13090;53.422;7.670;2023-03-18T21:58:55;7.10;;;4.57;;
25107;SDS011;13090;53.422;7.670;2023-03-18T22:03:57;42.85;;;5.63;;
25107;SDS011;13090;53.422;7.670;2023-03-18T22:09:01;9.32;;;5.80;;
25107;SDS011;13090;53.422;7.670;2023-03-18T22:14:03;124.00;;;13.65;;
25107;SDS011;13090;53.422;7.670;2023-03-18T22:19:05;10.57;;;7.60;;
25107;SDS011;13090;53.422;7.670;2023-03-18T22:24:10;10.88;;;7.50;;
25107;SDS011;13090;53.422;7.670;2023-03-18T22:29:14;11.82;;;6.72;;
25107;SDS011;13090;53.422;7.670;2023-03-18T22:34:19;35.03;;;8.60;;
25107;SDS011;13090;53.422;7.670;2023-03-18T22:39:24;10.02;;;7.25;;
25107;SDS011;13090;53.422;7.670;2023-03-18T22:44:27;17.05;;;9.05;;
25107;SDS011;13090;53.422;7.670;2023-03-18T22:49:29;8.02;;;6.05;;
25107;SDS011;13090;53.422;7.670;2023-03-18T22:54:32;8.73;;;6.53;;
25107;SDS011;13090;53.422;7.670;2023-03-18T22:59:34;7.70;;;5.60;;
25107;SDS011;13090;53.422;7.670;2023-03-18T23:04:37;9.82;;;7.05;;
25107;SDS011;13090;53.422;7.670;2023-03-18T23:09:40;8.95;;;6.65;;
25107;SDS011;13090;53.422;7.670;2023-03-18T23:14:57;10.35;;;7.40;;
25107;SDS011;13090;53.422;7.670;2023-03-18T23:19:59;8.95;;;6.30;;
25107;SDS011;13090;53.422;7.670;2023-03-18T23:25:03;8.98;;;6.38;;
25107;SDS011;13090;53.422;7.670;2023-03-18T23:30:06;7.00;;;6.18;;
25107;SDS011;13090;53.422;7.670;2023-03-18T23:35:09;8.20;;;5.93;;
25107;SDS011;13090;53.422;7.670;2023-03-18T23:40:13;7.47;;;5.90;;
25107;SDS011;13090;53.422;7.670;2023-03-18T23:45:16;6.55;;;5.50;;
25107;SDS011;13090;53.422;7.670;2023-03-18T23:50:18;9.55;;;7.03;;
25107;SDS011;13090;53.422;7.670;2023-03-18T23:55:22;8.63;;;7.32;;
